sensor_id;sensor_type;location;lat;lon;timestamp;temperature;humidity
8002;DHT22;4046;48.774;8.732;2023-03-24T00:00:20;20.90;85.00
8002;DHT22;4046;48.774;8.732;2023-03-24T00:02:49;20.80;84.80
8002;DHT22;4046;48.774;8.732;2023-03-24T00:05:18;20.90;85.00
8002;DHT22;4046;48.774;8.732;2023-03-24T00:07:45;20.80;84.90
8002;DHT22;4046;48.774;8.732;2023-03-24T00:10:17;20.80;84.90
8002;DHT22;4046;48.774;8.732;2023-03-24T00:12:45;20.90;85.00
8002;DHT22;4046;48.774;8.732;2023-03-24T00:15:14;20.80;84.90
8002;DHT22;4046;48.774;8.732;2023-03-24T00:17:40;20.80;84.90
8002;DHT22;4046;48.774;8.732;2023-03-24T00:20:08;20.90;85.00
8002;DHT22;4046;48.774;8.732;2023-03-24T00:22:44;20.90;85.00
8002;DHT22;4046;48.774;8.732;2023-03-24T00:25:14;20.80;85.00
8002;DHT22;4046;48.774;8.732;2023-03-24T00:27:41;20.80;85.00
8002;DHT22;4046;48.774;8.732;2023-03-24T00:30:11;20.80;85.00
8002;DHT22;4046;48.774;8.732;2023-03-24T00:32:38;20.80;85.10
8002;DHT22;4046;48.774;8.732;2023-03-24T00:35:05;20.80;85.10
8002;DHT22;4046;48.774;8.732;2023-03-24T00:37:35;20.80;85.10
8002;DHT22;4046;48.774;8.732;2023-03-24T00:40:11;20.80;85.10
8002;DHT22;4046;48.774;8.732;2023-03-24T00:42:39;20.80;85.10
8002;DHT22;4046;48.774;8.732;2023-03-24T00:45:07;20.80;85.00
8002;DHT22;4046;48.774;8.732;2023-03-24T00:47:34;20.80;84.90
8002;DHT22;4046;48.774;8.732;2023-03-24T00:50:13;20.80;85.00
8002;DHT22;4046;48.774;8.732;2023-03-24T00:52:40;20.80;85.00
8002;DHT22;4046;48.774;8.732;2023-03-24T00:55:11;20.80;85.10
8002;DHT22;4046;48.774;8.732;2023-03-24T00:57:42;20.80;85.10
8002;DHT22;4046;48.774;8.732;2023-03-24T01:00:23;20.80;85.00
8002;DHT22;4046;48.774;8.732;2023-03-24T01:02:51;20.80;85.00
8002;DHT22;4046;48.774;8.732;2023-03-24T01:05:23;20.80;85.10
8002;DHT22;4046;48.774;8.732;2023-03-24T01:07:50;20.80;85.00
8002;DHT22;4046;48.774;8.732;2023-03-24T01:10:20;20.80;85.00
8002;DHT22;4046;48.774;8.732;2023-03-24T01:12:53;20.80;85.00
8002;DHT22;4046;48.774;8.732;2023-03-24T01:15:21;20.80;85.10
8002;DHT22;4046;48.774;8.732;2023-03-24T01:17:50;20.80;85.00
8002;DHT22;4046;48.774;8.732;2023-03-24T01:20:18;20.80;85.10
8002;DHT22;4046;48.774;8.732;2023-03-24T01:22:45;20.80;85.10
8002;DHT22;4046;48.774;8.732;2023-03-24T01:25:13;20.80;85.10
8002;DHT22;4046;48.774;8.732;2023-03-24T01:27:43;20.80;85.00
8002;DHT22;4046;48.774;8.732;2023-03-24T01:30:12;20.80;85.00
8002;DHT22;4046;48.774;8.732;2023-03-24T01:32:39;20.80;85.10
8002;DHT22;4046;48.774;8.732;2023-03-24T01:35:06;20.80;85.10
8002;DHT22;4046;48.774;8.732;2023-03-24T01:37:33;20.80;85.00
8002;DHT22;4046;48.774;8.732;2023-03-24T01:39:59;20.80;85.10
8002;DHT22;4046;48.774;8.732;2023-03-24T01:42:28;20.80;85.10
8002;DHT22;4046;48.774;8.732;2023-03-24T01:44:58;20.80;85.10
8002;DHT22;4046;48.774;8.732;2023-03-24T01:47:25;20.80;85.00
8002;DHT22;4046;48.774;8.732;2023-03-24T01:49:53;20.80;85.10
8002;DHT22;4046;48.774;8.732;2023-03-24T01:52:29;20.80;85.10
8002;DHT22;4046;48.774;8.732;2023-03-24T01:55:10;20.80;85.10
8002;DHT22;4046;48.774;8.732;2023-03-24T01:57:44;20.80;85.10
8002;DHT22;4046;48.774;8.732;2023-03-24T02:00:14;20.80;85.10
8002;DHT22;4046;48.774;8.732;2023-03-24T02:02:43;20.80;85.10
8002;DHT22;4046;48.774;8.732;2023-03-24T02:05:12;20.80;85.80
8002;DHT22;4046;48.774;8.732;2023-03-24T02:08:03;20.80;85.10
8002;DHT22;4046;48.774;8.732;2023-03-24T02:10:33;20.80;85.10
8002;DHT22;4046;48.774;8.732;2023-03-24T02:12:59;20.80;85.10
8002;DHT22;4046;48.774;8.732;2023-03-24T02:15:28;20.80;85.10
8002;DHT22;4046;48.774;8.732;2023-03-24T02:18:06;20.80;85.10
8002;DHT22;4046;48.774;8.732;2023-03-24T02:20:59;20.80;85.10
8002;DHT22;4046;48.774;8.732;2023-03-24T02:23:55;20.80;85.90
8002;DHT22;4046;48.774;8.732;2023-03-24T02:29:24;20.80;85.10
8002;DHT22;4046;48.774;8.732;2023-03-24T02:40:33;20.70;85.10
8002;DHT22;4046;48.774;8.732;2023-03-24T02:43:15;20.70;85.10
8002;DHT22;4046;48.774;8.732;2023-03-24T02:57:11;20.70;85.10
8002;DHT22;4046;48.774;8.732;2023-03-24T02:59:53;20.80;85.10
8002;DHT22;4046;48.774;8.732;2023-03-24T03:02:26;20.70;85.10
8002;DHT22;4046;48.774;8.732;2023-03-24T03:04:57;20.70;85.10
8002;DHT22;4046;48.774;8.732;2023-03-24T03:07:29;20.80;85.10
8002;DHT22;4046;48.774;8.732;2023-03-24T03:10:02;20.80;85.10
8002;DHT22;4046;48.774;8.732;2023-03-24T03:12:32;20.80;85.10
8002;DHT22;4046;48.774;8.732;2023-03-24T03:15:04;20.80;85.10
8002;DHT22;4046;48.774;8.732;2023-03-24T03:17:38;20.80;85.10
8002;DHT22;4046;48.774;8.732;2023-03-24T03:20:07;20.70;85.00
8002;DHT22;4046;48.774;8.732;2023-03-24T03:22:59;20.80;85.10
8002;DHT22;4046;48.774;8.732;2023-03-24T03:25:30;20.80;85.10
8002;DHT22;4046;48.774;8.732;2023-03-24T03:28:01;20.70;85.00
8002;DHT22;4046;48.774;8.732;2023-03-24T03:30:36;20.70;85.00
8002;DHT22;4046;48.774;8.732;2023-03-24T03:33:17;20.70;85.00
8002;DHT22;4046;48.774;8.732;2023-03-24T03:36:01;20.80;85.10
8002;DHT22;4046;48.774;8.732;2023-03-24T03:38:51;20.80;85.10
8002;DHT22;4046;48.774;8.732;2023-03-24T03:41:20;20.70;84.90
8002;DHT22;4046;48.774;8.732;2023-03-24T03:43:47;20.70;85.00
8002;DHT22;4046;48.774;8.732;2023-03-24T03:46:15;20.70;84.90
8002;DHT22;4046;48.774;8.732;2023-03-24T03:48:42;20.80;85.10
8002;DHT22;4046;48.774;8.732;2023-03-24T03:51:09;20.70;85.00
8002;DHT22;4046;48.774;8.732;2023-03-24T03:53:51;20.70;85.10
8002;DHT22;4046;48.774;8.732;2023-03-24T03:56:21;20.70;85.10
8002;DHT22;4046;48.774;8.732;2023-03-24T03:58:47;20.70;85.80
8002;DHT22;4046;48.774;8.732;2023-03-24T04:01:20;20.70;85.10
8002;DHT22;4046;48.774;8.732;2023-03-24T04:04:07;20.70;85.10
8002;DHT22;4046;48.774;8.732;2023-03-24T04:10:03;20.70;85.10
8002;DHT22;4046;48.774;8.732;2023-03-24T04:13:05;20.70;85.10
8002;DHT22;4046;48.774;8.732;2023-03-24T04:15:57;20.70;85.10
8002;DHT22;4046;48.774;8.732;2023-03-24T04:21:09;20.70;85.10
8002;DHT22;4046;48.774;8.732;2023-03-24T04:24:10;20.70;85.20
8002;DHT22;4046;48.774;8.732;2023-03-24T04:29:21;20.70;85.10
8002;DHT22;4046;48.774;8.732;2023-03-24T04:32:08;20.70;85.10
8002;DHT22;4046;48.774;8.732;2023-03-24T04:34:45;20.70;85.10
8002;DHT22;4046;48.774;8.732;2023-03-24T04:37:34;20.70;85.00
8002;DHT22;4046;48.774;8.732;2023-03-24T04:40:09;20.70;85.00
8002;DHT22;4046;48.774;8.732;2023-03-24T04:42:42;20.70;85.00
8002;DHT22;4046;48.774;8.732;2023-03-24T04:45:12;20.70;85.00
8002;DHT22;4046;48.774;8.732;2023-03-24T04:47:46;20.70;85.00
8002;DHT22;4046;48.774;8.732;2023-03-24T04:50:27;20.70;85.00
8002;DHT22;4046;48.774;8.732;2023-03-24T04:52:55;20.70;85.00
8002;DHT22;4046;48.774;8.732;2023-03-24T04:58:06;20.70;85.00
8002;DHT22;4046;48.774;8.732;2023-03-24T05:00:32;20.70;85.00
8002;DHT22;4046;48.774;8.732;2023-03-24T05:02:58;20.70;85.00
8002;DHT22;4046;48.774;8.732;2023-03-24T05:05:24;20.80;85.10
8002;DHT22;4046;48.774;8.732;2023-03-24T05:07:51;20.80;85.00
8002;DHT22;4046;48.774;8.732;2023-03-24T05:10:17;20.70;84.90
8002;DHT22;4046;48.774;8.732;2023-03-24T05:12:44;20.70;85.00
8002;DHT22;4046;48.774;8.732;2023-03-24T05:15:11;20.70;85.00
8002;DHT22;4046;48.774;8.732;2023-03-24T05:17:37;20.70;84.90
8002;DHT22;4046;48.774;8.732;2023-03-24T05:20:04;20.70;85.00
8002;DHT22;4046;48.774;8.732;2023-03-24T05:22:38;20.70;85.70
8002;DHT22;4046;48.774;8.732;2023-03-24T05:25:05;20.70;85.00
8002;DHT22;4046;48.774;8.732;2023-03-24T05:27:31;20.70;84.90
8002;DHT22;4046;48.774;8.732;2023-03-24T05:29:58;20.70;85.00
8002;DHT22;4046;48.774;8.732;2023-03-24T05:32:24;20.70;84.90
8002;DHT22;4046;48.774;8.732;2023-03-24T05:34:50;20.70;85.70
8002;DHT22;4046;48.774;8.732;2023-03-24T05:37:16;20.70;85.00
8002;DHT22;4046;48.774;8.732;2023-03-24T05:39:43;20.70;85.00
8002;DHT22;4046;48.774;8.732;2023-03-24T05:42:09;20.70;85.00
8002;DHT22;4046;48.774;8.732;2023-03-24T05:44:36;20.70;84.90
8002;DHT22;4046;48.774;8.732;2023-03-24T05:47:02;20.70;85.00
8002;DHT22;4046;48.774;8.732;2023-03-24T05:49:29;20.70;84.90
8002;DHT22;4046;48.774;8.732;2023-03-24T05:51:55;20.70;84.90
8002;DHT22;4046;48.774;8.732;2023-03-24T05:54:21;20.70;84.90
8002;DHT22;4046;48.774;8.732;2023-03-24T05:56:48;20.70;85.00
8002;DHT22;4046;48.774;8.732;2023-03-24T05:59:14;20.70;85.00
8002;DHT22;4046;48.774;8.732;2023-03-24T06:01:40;20.70;84.90
8002;DHT22;4046;48.774;8.732;2023-03-24T06:04:07;20.70;84.90
8002;DHT22;4046;48.774;8.732;2023-03-24T06:06:34;20.70;85.00
8002;DHT22;4046;48.774;8.732;2023-03-24T06:09:00;20.70;84.90
8002;DHT22;4046;48.774;8.732;2023-03-24T06:11:30;20.70;84.90
8002;DHT22;4046;48.774;8.732;2023-03-24T06:13:56;20.70;84.90
8002;DHT22;4046;48.774;8.732;2023-03-24T06:16:25;20.70;84.90
8002;DHT22;4046;48.774;8.732;2023-03-24T06:18:52;20.70;84.80
8002;DHT22;4046;48.774;8.732;2023-03-24T06:21:19;20.70;84.80
8002;DHT22;4046;48.774;8.732;2023-03-24T06:23:45;20.70;84.80
8002;DHT22;4046;48.774;8.732;2023-03-24T06:26:12;20.80;84.90
8002;DHT22;4046;48.774;8.732;2023-03-24T06:28:39;20.80;84.90
8002;DHT22;4046;48.774;8.732;2023-03-24T06:31:10;20.70;84.90
8002;DHT22;4046;48.774;8.732;2023-03-24T06:33:40;20.80;84.90
8002;DHT22;4046;48.774;8.732;2023-03-24T06:36:08;20.70;84.80
8002;DHT22;4046;48.774;8.732;2023-03-24T06:38:34;20.80;84.90
8002;DHT22;4046;48.774;8.732;2023-03-24T06:41:02;20.70;84.80
8002;DHT22;4046;48.774;8.732;2023-03-24T06:43:29;20.70;84.80
8002;DHT22;4046;48.774;8.732;2023-03-24T06:45:55;20.70;84.80
8002;DHT22;4046;48.774;8.732;2023-03-24T06:48:22;20.70;84.90
8002;DHT22;4046;48.774;8.732;2023-03-24T06:50:48;20.70;84.90
8002;DHT22;4046;48.774;8.732;2023-03-24T06:53:14;20.70;84.90
8002;DHT22;4046;48.774;8.732;2023-03-24T06:55:41;20.70;84.90
8002;DHT22;4046;48.774;8.732;2023-03-24T06:58:07;20.70;84.90
8002;DHT22;4046;48.774;8.732;2023-03-24T07:00:52;20.70;85.00
8002;DHT22;4046;48.774;8.732;2023-03-24T07:03:20;20.70;84.90
8002;DHT22;4046;48.774;8.732;2023-03-24T07:05:48;20.70;85.00
8002;DHT22;4046;48.774;8.732;2023-03-24T07:08:14;20.70;85.00
8002;DHT22;4046;48.774;8.732;2023-03-24T07:10:40;20.70;84.90
8002;DHT22;4046;48.774;8.732;2023-03-24T07:13:07;20.70;84.90
8002;DHT22;4046;48.774;8.732;2023-03-24T07:15:34;20.70;84.90
8002;DHT22;4046;48.774;8.732;2023-03-24T07:18:00;20.70;84.90
8002;DHT22;4046;48.774;8.732;2023-03-24T07:20:26;20.70;85.00
8002;DHT22;4046;48.774;8.732;2023-03-24T07:22:56;20.70;84.90
8002;DHT22;4046;48.774;8.732;2023-03-24T07:25:23;20.70;85.00
8002;DHT22;4046;48.774;8.732;2023-03-24T07:27:54;20.70;85.00
8002;DHT22;4046;48.774;8.732;2023-03-24T07:30:23;20.70;85.00
8002;DHT22;4046;48.774;8.732;2023-03-24T07:32:50;20.70;85.00
8002;DHT22;4046;48.774;8.732;2023-03-24T07:35:16;20.70;85.10
8002;DHT22;4046;48.774;8.732;2023-03-24T07:37:43;20.70;85.10
8002;DHT22;4046;48.774;8.732;2023-03-24T07:40:10;20.70;85.00
8002;DHT22;4046;48.774;8.732;2023-03-24T07:42:41;20.70;85.00
8002;DHT22;4046;48.774;8.732;2023-03-24T07:45:09;20.70;85.80
8002;DHT22;4046;48.774;8.732;2023-03-24T07:47:37;20.70;85.00
8002;DHT22;4046;48.774;8.732;2023-03-24T07:50:06;20.70;85.00
8002;DHT22;4046;48.774;8.732;2023-03-24T07:52:39;20.70;85.00
8002;DHT22;4046;48.774;8.732;2023-03-24T07:55:07;20.70;85.00
8002;DHT22;4046;48.774;8.732;2023-03-24T07:57:35;20.70;85.10
8002;DHT22;4046;48.774;8.732;2023-03-24T08:00:06;20.70;85.10
8002;DHT22;4046;48.774;8.732;2023-03-24T08:02:50;20.70;85.10
8002;DHT22;4046;48.774;8.732;2023-03-24T08:05:21;20.70;85.10
8002;DHT22;4046;48.774;8.732;2023-03-24T08:07:49;20.70;85.10
8002;DHT22;4046;48.774;8.732;2023-03-24T08:10:20;20.70;85.10
8002;DHT22;4046;48.774;8.732;2023-03-24T08:12:48;20.70;85.00
8002;DHT22;4046;48.774;8.732;2023-03-24T08:15:14;20.70;85.10
8002;DHT22;4046;48.774;8.732;2023-03-24T08:17:41;20.70;85.10
8002;DHT22;4046;48.774;8.732;2023-03-24T08:20:09;20.70;85.10
8002;DHT22;4046;48.774;8.732;2023-03-24T08:22:41;20.70;85.10
8002;DHT22;4046;48.774;8.732;2023-03-24T08:25:09;20.70;85.10
8002;DHT22;4046;48.774;8.732;2023-03-24T08:27:36;20.70;85.10
8002;DHT22;4046;48.774;8.732;2023-03-24T08:30:05;20.70;85.10
8002;DHT22;4046;48.774;8.732;2023-03-24T08:32:33;20.70;85.10
8002;DHT22;4046;48.774;8.732;2023-03-24T08:35:01;20.70;85.10
8002;DHT22;4046;48.774;8.732;2023-03-24T08:37:30;20.70;85.10
8002;DHT22;4046;48.774;8.732;2023-03-24T08:39:56;20.70;85.20
8002;DHT22;4046;48.774;8.732;2023-03-24T08:42:24;20.70;85.40
8002;DHT22;4046;48.774;8.732;2023-03-24T08:44:51;20.70;85.70
8002;DHT22;4046;48.774;8.732;2023-03-24T08:47:17;20.80;86.10
8002;DHT22;4046;48.774;8.732;2023-03-24T08:49:43;20.80;86.20
8002;DHT22;4046;48.774;8.732;2023-03-24T08:52:10;20.80;86.40
8002;DHT22;4046;48.774;8.732;2023-03-24T08:54:36;20.80;86.40
8002;DHT22;4046;48.774;8.732;2023-03-24T08:57:03;20.80;86.50
8002;DHT22;4046;48.774;8.732;2023-03-24T08:59:29;20.80;86.70
8002;DHT22;4046;48.774;8.732;2023-03-24T09:01:55;20.80;86.60
8002;DHT22;4046;48.774;8.732;2023-03-24T09:04:21;20.80;86.50
8002;DHT22;4046;48.774;8.732;2023-03-24T09:06:47;20.80;86.50
8002;DHT22;4046;48.774;8.732;2023-03-24T09:09:15;20.80;86.40
8002;DHT22;4046;48.774;8.732;2023-03-24T09:11:41;20.80;86.30
8002;DHT22;4046;48.774;8.732;2023-03-24T09:14:07;20.80;86.70
8002;DHT22;4046;48.774;8.732;2023-03-24T09:16:34;20.80;86.60
8002;DHT22;4046;48.774;8.732;2023-03-24T09:19:00;20.80;86.70
8002;DHT22;4046;48.774;8.732;2023-03-24T09:21:26;20.90;87.00
8002;DHT22;4046;48.774;8.732;2023-03-24T09:23:53;20.90;87.00
8002;DHT22;4046;48.774;8.732;2023-03-24T09:26:19;20.90;86.90
8002;DHT22;4046;48.774;8.732;2023-03-24T09:28:48;20.90;87.00
8002;DHT22;4046;48.774;8.732;2023-03-24T09:31:14;20.90;86.90
8002;DHT22;4046;48.774;8.732;2023-03-24T09:33:41;20.90;87.00
8002;DHT22;4046;48.774;8.732;2023-03-24T09:36:08;21.00;87.20
8002;DHT22;4046;48.774;8.732;2023-03-24T09:38:34;21.10;86.90
8002;DHT22;4046;48.774;8.732;2023-03-24T09:41:02;21.10;86.70
8002;DHT22;4046;48.774;8.732;2023-03-24T09:43:45;21.20;86.60
8002;DHT22;4046;48.774;8.732;2023-03-24T09:46:32;21.40;86.40
8002;DHT22;4046;48.774;8.732;2023-03-24T09:48:59;21.50;86.30
8002;DHT22;4046;48.774;8.732;2023-03-24T09:51:28;21.60;86.10
8002;DHT22;4046;48.774;8.732;2023-03-24T09:56:36;21.60;86.00
8002;DHT22;4046;48.774;8.732;2023-03-24T09:59:10;21.60;86.10
8002;DHT22;4046;48.774;8.732;2023-03-24T10:01:38;21.50;86.20
8002;DHT22;4046;48.774;8.732;2023-03-24T10:04:18;21.60;86.30
8002;DHT22;4046;48.774;8.732;2023-03-24T10:06:47;21.50;86.20
8002;DHT22;4046;48.774;8.732;2023-03-24T10:09:33;21.60;86.30
8002;DHT22;4046;48.774;8.732;2023-03-24T10:12:29;21.60;86.30
8002;DHT22;4046;48.774;8.732;2023-03-24T10:15:31;21.60;86.70
8002;DHT22;4046;48.774;8.732;2023-03-24T10:20:59;21.60;86.80
8002;DHT22;4046;48.774;8.732;2023-03-24T10:23:44;21.60;87.00
8002;DHT22;4046;48.774;8.732;2023-03-24T10:26:23;21.50;87.10
8002;DHT22;4046;48.774;8.732;2023-03-24T10:31:46;21.50;88.10
8002;DHT22;4046;48.774;8.732;2023-03-24T10:34:13;21.50;87.40
8002;DHT22;4046;48.774;8.732;2023-03-24T10:36:40;21.50;87.30
8002;DHT22;4046;48.774;8.732;2023-03-24T10:39:14;21.50;87.50
8002;DHT22;4046;48.774;8.732;2023-03-24T10:41:41;21.50;87.60
8002;DHT22;4046;48.774;8.732;2023-03-24T10:44:08;21.50;87.70
8002;DHT22;4046;48.774;8.732;2023-03-24T10:46:38;21.50;87.70
8002;DHT22;4046;48.774;8.732;2023-03-24T10:49:07;21.50;87.70
8002;DHT22;4046;48.774;8.732;2023-03-24T10:51:35;21.50;87.60
8002;DHT22;4046;48.774;8.732;2023-03-24T10:54:15;21.60;87.60
8002;DHT22;4046;48.774;8.732;2023-03-24T10:56:44;21.60;87.60
8002;DHT22;4046;48.774;8.732;2023-03-24T10:59:28;21.70;87.50
8002;DHT22;4046;48.774;8.732;2023-03-24T11:04:26;21.80;87.50
8002;DHT22;4046;48.774;8.732;2023-03-24T11:07:01;21.70;87.40
8002;DHT22;4046;48.774;8.732;2023-03-24T11:09:30;21.80;87.60
8002;DHT22;4046;48.774;8.732;2023-03-24T11:12:03;21.80;87.40
8002;DHT22;4046;48.774;8.732;2023-03-24T11:14:30;21.80;87.30
8002;DHT22;4046;48.774;8.732;2023-03-24T11:17:14;21.80;87.40
8002;DHT22;4046;48.774;8.732;2023-03-24T11:19:54;21.80;87.30
8002;DHT22;4046;48.774;8.732;2023-03-24T11:22:21;21.70;87.40
8002;DHT22;4046;48.774;8.732;2023-03-24T11:24:54;21.60;87.50
8002;DHT22;4046;48.774;8.732;2023-03-24T11:27:21;21.50;87.60
8002;DHT22;4046;48.774;8.732;2023-03-24T11:29:50;21.50;87.70
8002;DHT22;4046;48.774;8.732;2023-03-24T11:32:23;21.50;87.90
8002;DHT22;4046;48.774;8.732;2023-03-24T11:35:06;21.50;87.80
8002;DHT22;4046;48.774;8.732;2023-03-24T11:37:36;21.50;88.70
8002;DHT22;4046;48.774;8.732;2023-03-24T11:43:04;21.50;88.00
8002;DHT22;4046;48.774;8.732;2023-03-24T11:50:56;21.40;87.90
8002;DHT22;4046;48.774;8.732;2023-03-24T11:53:27;21.40;87.80
8002;DHT22;4046;48.774;8.732;2023-03-24T11:58:51;21.50;87.80
8002;DHT22;4046;48.774;8.732;2023-03-24T12:01:41;21.50;87.80
8002;DHT22;4046;48.774;8.732;2023-03-24T12:04:33;21.40;87.60
8002;DHT22;4046;48.774;8.732;2023-03-24T12:13:00;21.40;87.50
8002;DHT22;4046;48.774;8.732;2023-03-24T12:20:57;21.40;87.60
8002;DHT22;4046;48.774;8.732;2023-03-24T12:23:57;21.30;87.60
8002;DHT22;4046;48.774;8.732;2023-03-24T12:26:25;21.40;87.70
8002;DHT22;4046;48.774;8.732;2023-03-24T12:29:15;21.40;87.80
8002;DHT22;4046;48.774;8.732;2023-03-24T12:32:01;21.40;88.00
8002;DHT22;4046;48.774;8.732;2023-03-24T12:34:46;21.40;88.00
8002;DHT22;4046;48.774;8.732;2023-03-24T12:37:48;21.40;87.90
8002;DHT22;4046;48.774;8.732;2023-03-24T12:40:37;21.50;88.00
8002;DHT22;4046;48.774;8.732;2023-03-24T12:43:28;21.50;88.00
8002;DHT22;4046;48.774;8.732;2023-03-24T12:45:58;21.50;88.00
8002;DHT22;4046;48.774;8.732;2023-03-24T12:48:46;21.60;88.00
8002;DHT22;4046;48.774;8.732;2023-03-24T12:51:30;21.60;88.00
8002;DHT22;4046;48.774;8.732;2023-03-24T12:56:47;21.60;88.10
8002;DHT22;4046;48.774;8.732;2023-03-24T12:59:20;21.60;88.10
8002;DHT22;4046;48.774;8.732;2023-03-24T13:01:54;21.60;88.20
8002;DHT22;4046;48.774;8.732;2023-03-24T13:04:28;21.60;88.20
8002;DHT22;4046;48.774;8.732;2023-03-24T13:07:17;21.50;88.10
8002;DHT22;4046;48.774;8.732;2023-03-24T13:09:56;21.50;88.30
8002;DHT22;4046;48.774;8.732;2023-03-24T13:12:39;21.50;88.30
8002;DHT22;4046;48.774;8.732;2023-03-24T13:15:15;21.50;88.30
8002;DHT22;4046;48.774;8.732;2023-03-24T13:20:42;21.50;88.30
8002;DHT22;4046;48.774;8.732;2023-03-24T13:32:03;21.40;88.40
8002;DHT22;4046;48.774;8.732;2023-03-24T13:34:39;21.40;88.50
8002;DHT22;4046;48.774;8.732;2023-03-24T13:37:19;21.40;88.50
8002;DHT22;4046;48.774;8.732;2023-03-24T13:39:55;21.40;88.50
8002;DHT22;4046;48.774;8.732;2023-03-24T13:42:34;21.40;88.50
8002;DHT22;4046;48.774;8.732;2023-03-24T13:45:04;21.50;88.50
8002;DHT22;4046;48.774;8.732;2023-03-24T13:48:02;21.40;88.50
8002;DHT22;4046;48.774;8.732;2023-03-24T13:50:41;21.40;88.50
8002;DHT22;4046;48.774;8.732;2023-03-24T13:53:13;21.40;88.50
8002;DHT22;4046;48.774;8.732;2023-03-24T13:55:47;21.40;88.40
8002;DHT22;4046;48.774;8.732;2023-03-24T13:58:20;21.40;88.40
8002;DHT22;4046;48.774;8.732;2023-03-24T14:03:44;21.40;88.30
8002;DHT22;4046;48.774;8.732;2023-03-24T14:06:16;21.30;88.30
8002;DHT22;4046;48.774;8.732;2023-03-24T14:19:44;21.30;88.30
8002;DHT22;4046;48.774;8.732;2023-03-24T14:22:33;21.20;88.10
8002;DHT22;4046;48.774;8.732;2023-03-24T14:25:04;21.20;88.10
8002;DHT22;4046;48.774;8.732;2023-03-24T14:27:43;21.20;88.10
8002;DHT22;4046;48.774;8.732;2023-03-24T14:32:44;21.20;88.00
8002;DHT22;4046;48.774;8.732;2023-03-24T14:35:32;21.30;88.10
8002;DHT22;4046;48.774;8.732;2023-03-24T14:40:41;21.30;88.10
8002;DHT22;4046;48.774;8.732;2023-03-24T14:43:29;21.30;88.10
8002;DHT22;4046;48.774;8.732;2023-03-24T14:49:01;21.20;88.00
8002;DHT22;4046;48.774;8.732;2023-03-24T14:51:39;21.30;88.10
8002;DHT22;4046;48.774;8.732;2023-03-24T14:54:14;21.20;88.00
8002;DHT22;4046;48.774;8.732;2023-03-24T14:56:43;21.20;87.90
8002;DHT22;4046;48.774;8.732;2023-03-24T14:59:28;21.30;88.00
8002;DHT22;4046;48.774;8.732;2023-03-24T15:02:12;21.20;87.90
8002;DHT22;4046;48.774;8.732;2023-03-24T15:08:15;21.30;88.00
8002;DHT22;4046;48.774;8.732;2023-03-24T15:11:02;21.20;87.80
8002;DHT22;4046;48.774;8.732;2023-03-24T15:19:04;21.20;87.90
8002;DHT22;4046;48.774;8.732;2023-03-24T15:21:38;21.30;88.00
8002;DHT22;4046;48.774;8.732;2023-03-24T15:26:48;21.30;88.00
8002;DHT22;4046;48.774;8.732;2023-03-24T15:29:14;21.30;87.90
8002;DHT22;4046;48.774;8.732;2023-03-24T15:31:40;21.30;87.90
8002;DHT22;4046;48.774;8.732;2023-03-24T15:34:27;21.30;87.90
8002;DHT22;4046;48.774;8.732;2023-03-24T15:36:59;21.30;88.00
8002;DHT22;4046;48.774;8.732;2023-03-24T15:39:33;21.30;88.00
8002;DHT22;4046;48.774;8.732;2023-03-24T15:41:59;21.30;88.00
8002;DHT22;4046;48.774;8.732;2023-03-24T15:44:28;21.30;87.90
8002;DHT22;4046;48.774;8.732;2023-03-24T15:46:58;21.40;88.00
8002;DHT22;4046;48.774;8.732;2023-03-24T15:49:26;21.40;87.90
8002;DHT22;4046;48.774;8.732;2023-03-24T15:51:58;21.40;88.00
8002;DHT22;4046;48.774;8.732;2023-03-24T15:54:35;21.40;87.90
8002;DHT22;4046;48.774;8.732;2023-03-24T15:57:18;21.40;87.90
8002;DHT22;4046;48.774;8.732;2023-03-24T16:00:04;21.40;87.80
8002;DHT22;4046;48.774;8.732;2023-03-24T16:02:50;21.50;87.90
8002;DHT22;4046;48.774;8.732;2023-03-24T16:05:22;21.40;87.80
8002;DHT22;4046;48.774;8.732;2023-03-24T16:12:52;21.50;87.90
8002;DHT22;4046;48.774;8.732;2023-03-24T16:15:19;21.40;87.80
8002;DHT22;4046;48.774;8.732;2023-03-24T16:17:45;21.50;87.90
8002;DHT22;4046;48.774;8.732;2023-03-24T16:20:20;21.50;87.90
8002;DHT22;4046;48.774;8.732;2023-03-24T16:22:46;21.40;87.80
8002;DHT22;4046;48.774;8.732;2023-03-24T16:25:13;21.40;87.80
8002;DHT22;4046;48.774;8.732;2023-03-24T16:27:39;21.40;87.80
8002;DHT22;4046;48.774;8.732;2023-03-24T16:30:16;21.40;87.80
8002;DHT22;4046;48.774;8.732;2023-03-24T16:32:43;21.40;87.80
8002;DHT22;4046;48.774;8.732;2023-03-24T16:35:09;21.40;87.80
8002;DHT22;4046;48.774;8.732;2023-03-24T16:37:36;21.40;87.80
8002;DHT22;4046;48.774;8.732;2023-03-24T16:40:02;21.40;87.80
8002;DHT22;4046;48.774;8.732;2023-03-24T16:42:31;21.30;87.80
8002;DHT22;4046;48.774;8.732;2023-03-24T16:44:57;21.30;87.80
8002;DHT22;4046;48.774;8.732;2023-03-24T16:47:23;21.30;87.90
8002;DHT22;4046;48.774;8.732;2023-03-24T16:49:49;21.30;87.90
8002;DHT22;4046;48.774;8.732;2023-03-24T16:52:15;21.30;88.00
8002;DHT22;4046;48.774;8.732;2023-03-24T16:54:42;21.30;88.00
8002;DHT22;4046;48.774;8.732;2023-03-24T16:57:08;21.30;88.10
8002;DHT22;4046;48.774;8.732;2023-03-24T16:59:34;21.30;88.30
8002;DHT22;4046;48.774;8.732;2023-03-24T17:02:01;21.20;88.30
8002;DHT22;4046;48.774;8.732;2023-03-24T17:04:31;21.20;88.50
8002;DHT22;4046;48.774;8.732;2023-03-24T17:06:59;21.30;88.70
8002;DHT22;4046;48.774;8.732;2023-03-24T17:09:25;21.20;88.60
8002;DHT22;4046;48.774;8.732;2023-03-24T17:11:56;21.30;88.80
8002;DHT22;4046;48.774;8.732;2023-03-24T17:14:23;21.20;88.70
8002;DHT22;4046;48.774;8.732;2023-03-24T17:16:50;21.30;88.90
8002;DHT22;4046;48.774;8.732;2023-03-24T17:19:20;21.20;88.80
8002;DHT22;4046;48.774;8.732;2023-03-24T17:24:15;21.20;88.90
8002;DHT22;4046;48.774;8.732;2023-03-24T17:26:41;21.20;89.00
8002;DHT22;4046;48.774;8.732;2023-03-24T17:29:10;21.30;89.20
8002;DHT22;4046;48.774;8.732;2023-03-24T17:31:36;21.20;89.10
8002;DHT22;4046;48.774;8.732;2023-03-24T17:34:03;21.20;89.10
8002;DHT22;4046;48.774;8.732;2023-03-24T17:36:29;21.20;89.10
8002;DHT22;4046;48.774;8.732;2023-03-24T17:38:56;21.30;89.20
8002;DHT22;4046;48.774;8.732;2023-03-24T17:41:22;21.20;89.10
8002;DHT22;4046;48.774;8.732;2023-03-24T17:43:48;21.20;89.10
8002;DHT22;4046;48.774;8.732;2023-03-24T17:46:15;21.20;89.20
8002;DHT22;4046;48.774;8.732;2023-03-24T17:48:41;21.30;89.30
8002;DHT22;4046;48.774;8.732;2023-03-24T17:51:08;21.20;89.20
8002;DHT22;4046;48.774;8.732;2023-03-24T17:53:34;21.20;89.20
8002;DHT22;4046;48.774;8.732;2023-03-24T17:56:02;21.20;89.20
8002;DHT22;4046;48.774;8.732;2023-03-24T17:58:34;21.30;89.10
8002;DHT22;4046;48.774;8.732;2023-03-24T18:01:02;21.20;88.90
8002;DHT22;4046;48.774;8.732;2023-03-24T18:03:35;21.30;89.00
8002;DHT22;4046;48.774;8.732;2023-03-24T18:06:10;21.20;88.80
8002;DHT22;4046;48.774;8.732;2023-03-24T18:08:37;21.30;88.90
8002;DHT22;4046;48.774;8.732;2023-03-24T18:11:09;21.30;89.60
8002;DHT22;4046;48.774;8.732;2023-03-24T18:13:36;21.20;88.70
8002;DHT22;4046;48.774;8.732;2023-03-24T18:16:03;21.20;88.80
8002;DHT22;4046;48.774;8.732;2023-03-24T18:18:32;21.20;88.60
8002;DHT22;4046;48.774;8.732;2023-03-24T18:20:59;21.20;88.60
8002;DHT22;4046;48.774;8.732;2023-03-24T18:23:26;21.20;88.60
8002;DHT22;4046;48.774;8.732;2023-03-24T18:25:57;21.20;88.60
8002;DHT22;4046;48.774;8.732;2023-03-24T18:28:23;21.20;88.60
8002;DHT22;4046;48.774;8.732;2023-03-24T18:30:50;21.20;88.60
8002;DHT22;4046;48.774;8.732;2023-03-24T18:33:17;21.20;88.50